createdAt,value
2019-02-15T00:00:02.258Z,926.64
2019-02-15T00:01:34.066Z,926.63
2019-02-15T00:03:05.879Z,926.68
2019-02-15T00:04:37.692Z,926.63
2019-02-15T00:06:09.505Z,926.69
2019-02-15T00:07:41.319Z,926.63
2019-02-15T00:09:13.132Z,926.73
2019-02-15T00:10:44.944Z,926.75
2019-02-15T00:12:16.757Z,926.74
2019-02-15T00:13:48.671Z,926.73
2019-02-15T00:15:20.384Z,926.76
2019-02-15T00:16:52.197Z,926.79
2019-02-15T00:18:24.011Z,926.88
2019-02-15T00:19:55.854Z,926.90
2019-02-15T00:21:27.636Z,926.93
2019-02-15T00:22:59.504Z,927.01
2019-02-15T00:24:31.364Z,927.03
2019-02-15T00:26:03.075Z,927.06
2019-02-15T00:27:34.889Z,927.08
2019-02-15T00:29:06.709Z,927.14
2019-02-15T00:30:38.515Z,927.13
2019-02-15T00:32:10.638Z,927.14
2019-02-15T00:33:42.166Z,927.19
2019-02-15T00:35:13.996Z,927.17
2019-02-15T00:36:45.769Z,927.21
2019-02-15T00:38:17.583Z,927.17
2019-02-15T00:39:49.396Z,927.19
2019-02-15T00:41:21.214Z,927.18
2019-02-15T00:42:53.022Z,927.17
2019-02-15T00:44:24.837Z,927.17
2019-02-15T00:45:57.053Z,927.17
2019-02-15T00:47:28.462Z,927.09
2019-02-15T00:49:00.275Z,927.05
2019-02-15T00:50:32.239Z,927.06
2019-02-15T00:52:03.947Z,927.02
2019-02-15T00:53:35.715Z,926.96
2019-02-15T00:55:07.530Z,926.97
2019-02-15T00:56:39.341Z,926.93
2019-02-15T00:58:11.155Z,926.88
2019-02-15T00:59:42.968Z,926.83
2019-02-15T01:01:14.781Z,926.81
2019-02-15T01:02:46.594Z,926.78
2019-02-15T01:04:18.412Z,926.78
2019-02-15T01:05:50.220Z,926.77
2019-02-15T01:07:22.033Z,926.75
2019-02-15T01:08:53.946Z,926.72
2019-02-15T01:10:25.659Z,926.70
2019-02-15T01:11:57.473Z,926.61
2019-02-15T01:13:31.149Z,926.57
2019-02-15T01:15:01.098Z,926.53
2019-02-15T01:16:32.911Z,926.53
2019-02-15T01:18:04.724Z,926.58
2019-02-15T01:19:36.537Z,926.65
2019-02-15T01:21:08.350Z,926.71
2019-02-15T01:22:40.162Z,926.71
2019-02-15T01:24:11.977Z,926.86
2019-02-15T01:25:43.787Z,926.86
2019-02-15T01:27:15.705Z,926.84
2019-02-15T01:28:47.412Z,926.89
2019-02-15T01:30:19.225Z,926.89
2019-02-15T01:31:51.039Z,926.87
2019-02-15T01:33:22.850Z,926.88
2019-02-15T01:34:54.664Z,926.90
2019-02-15T01:36:26.476Z,926.88
2019-02-15T01:37:58.290Z,926.83
2019-02-15T01:39:30.103Z,926.81
2019-02-15T01:41:01.914Z,926.69
2019-02-15T01:42:33.727Z,926.68
2019-02-15T01:44:05.540Z,926.66
2019-02-15T01:45:42.072Z,926.66
2019-02-15T01:47:09.172Z,926.64
2019-02-15T01:48:40.979Z,926.63
2019-02-15T01:50:12.791Z,926.61
2019-02-15T01:51:44.603Z,926.59
2019-02-15T01:53:16.420Z,926.55
2019-02-15T01:54:48.533Z,926.59
2019-02-15T01:56:20.041Z,926.55
2019-02-15T01:57:51.853Z,926.54
2019-02-15T01:59:23.666Z,926.53
2019-02-15T02:00:55.484Z,926.46
2019-02-15T02:02:27.292Z,926.41
2019-02-15T02:03:59.213Z,926.41
2019-02-15T02:05:30.919Z,926.41
2019-02-15T02:07:02.732Z,926.42
2019-02-15T02:08:34.544Z,926.43
2019-02-15T02:10:06.358Z,926.39
2019-02-15T02:11:38.172Z,926.35
2019-02-15T02:13:09.984Z,926.30
2019-02-15T02:14:41.798Z,926.29
2019-02-15T02:16:13.611Z,926.24
2019-02-15T02:17:45.429Z,926.19
2019-02-15T02:19:17.237Z,926.21
2019-02-15T02:20:49.050Z,926.18
2019-02-15T02:22:21.014Z,926.23
2019-02-15T02:23:52.677Z,926.18
2019-02-15T02:25:24.490Z,926.20
2019-02-15T02:26:56.305Z,926.22
2019-02-15T02:28:28.116Z,926.15
2019-02-15T02:29:59.935Z,926.11
2019-02-15T02:31:31.743Z,926.06
2019-02-15T02:33:03.556Z,926.07
2019-02-15T02:34:35.369Z,926.08
2019-02-15T02:36:07.213Z,926.10
2019-02-15T02:37:38.994Z,926.08
2019-02-15T02:39:10.808Z,926.10
2019-02-15T02:40:42.831Z,926.02
2019-02-15T02:42:14.437Z,926.12
2019-02-15T02:43:46.246Z,926.08
2019-02-15T02:45:18.059Z,926.07
2019-02-15T02:46:49.877Z,926.04
2019-02-15T02:48:21.686Z,926.01
2019-02-15T02:49:53.617Z,925.96
2019-02-15T02:51:25.312Z,926.00
2019-02-15T02:52:57.124Z,926.00
2019-02-15T02:54:28.942Z,926.02
2019-02-15T02:56:00.753Z,926.01
2019-02-15T02:57:32.570Z,925.97
2019-02-15T02:59:04.476Z,925.98
2019-02-15T03:00:36.192Z,925.93
2019-02-15T03:02:08.025Z,925.84
2019-02-15T03:03:39.816Z,925.81
2019-02-15T03:05:11.629Z,925.78
2019-02-15T03:06:43.452Z,925.81
2019-02-15T03:08:15.260Z,925.81
2019-02-15T03:09:47.068Z,925.81
2019-02-15T03:11:18.881Z,925.75
2019-02-15T03:12:50.712Z,925.75
2019-02-15T03:14:22.507Z,925.78
2019-02-15T03:15:54.321Z,925.75
2019-02-15T03:17:26.388Z,925.72
2019-02-15T03:18:57.946Z,925.71
2019-02-15T03:20:31.607Z,925.65
2019-02-15T03:22:01.572Z,925.69
2019-02-15T03:23:33.386Z,925.68
2019-02-15T03:25:05.199Z,925.66
2019-02-15T03:26:37.017Z,925.73
2019-02-15T03:28:08.823Z,925.68
2019-02-15T03:29:40.637Z,925.66
2019-02-15T03:31:12.457Z,925.64
2019-02-15T03:32:44.267Z,925.63
2019-02-15T03:34:16.074Z,925.63
2019-02-15T03:35:48.291Z,925.68
2019-02-15T03:37:19.698Z,925.62
2019-02-15T03:38:51.511Z,925.59
2019-02-15T03:40:23.344Z,925.63
2019-02-15T03:41:55.139Z,925.64
2019-02-15T03:43:26.948Z,925.61
2019-02-15T03:44:58.789Z,925.68
2019-02-15T03:46:30.575Z,925.62
2019-02-15T03:48:02.389Z,925.56
2019-02-15T03:49:34.199Z,925.51
2019-02-15T03:51:06.013Z,925.57
2019-02-15T03:52:37.824Z,925.58
2019-02-15T03:54:09.739Z,925.56
2019-02-15T03:55:41.450Z,925.51
2019-02-15T03:57:13.269Z,925.53
2019-02-15T03:58:45.074Z,925.53
2019-02-15T04:00:16.887Z,925.57
2019-02-15T04:01:48.700Z,925.60
2019-02-15T04:03:20.513Z,925.56
2019-02-15T04:04:52.324Z,925.49
2019-02-15T04:06:24.137Z,925.47
2019-02-15T04:07:55.949Z,925.46
2019-02-15T04:09:27.763Z,925.46
2019-02-15T04:10:59.576Z,925.46
2019-02-15T04:12:32.338Z,925.43
2019-02-15T04:14:03.203Z,925.42
2019-02-15T04:15:35.013Z,925.45
2019-02-15T04:17:06.831Z,925.47
2019-02-15T04:18:38.639Z,925.49
2019-02-15T04:20:10.452Z,925.45
2019-02-15T04:21:42.264Z,925.44
2019-02-15T04:23:14.077Z,925.43
2019-02-15T04:24:45.902Z,925.35
2019-02-15T04:26:17.705Z,925.32
2019-02-15T04:27:49.515Z,925.26
2019-02-15T04:29:21.327Z,925.24
2019-02-15T04:30:53.251Z,925.15
2019-02-15T04:32:24.959Z,925.11
2019-02-15T04:33:56.769Z,925.07
2019-02-15T04:35:28.579Z,924.91
2019-02-15T04:37:00.392Z,924.94
2019-02-15T04:38:32.206Z,924.91
2019-02-15T04:40:04.017Z,924.93
2019-02-15T04:41:35.829Z,924.93
2019-02-15T04:43:07.659Z,924.94
2019-02-15T04:44:42.801Z,924.96
2019-02-15T04:46:11.270Z,924.97
2019-02-15T04:47:43.086Z,924.96
2019-02-15T04:49:14.994Z,924.96
2019-02-15T04:50:46.706Z,924.98
2019-02-15T04:52:18.519Z,924.95
2019-02-15T04:53:50.332Z,924.94
2019-02-15T04:55:22.144Z,924.85
2019-02-15T04:56:53.958Z,924.81
2019-02-15T04:58:25.769Z,924.75
2019-02-15T04:59:57.583Z,924.72
2019-02-15T05:01:29.416Z,924.71
2019-02-15T05:03:01.208Z,924.69
2019-02-15T05:04:33.021Z,924.64
2019-02-15T05:06:04.834Z,924.65
2019-02-15T05:07:36.746Z,924.65
2019-02-15T05:09:08.463Z,924.63
2019-02-15T05:10:40.273Z,924.62
2019-02-15T05:12:12.086Z,924.59
2019-02-15T05:13:43.905Z,924.55
2019-02-15T05:15:15.713Z,924.58
2019-02-15T05:16:47.522Z,924.56
2019-02-15T05:18:19.336Z,924.53
2019-02-15T05:19:51.249Z,924.53
2019-02-15T05:21:22.961Z,924.54
2019-02-15T05:22:54.773Z,924.52
2019-02-15T05:24:26.587Z,924.48
2019-02-15T05:25:58.498Z,924.40
2019-02-15T05:27:30.212Z,924.39
2019-02-15T05:29:02.024Z,924.30
2019-02-15T05:30:33.843Z,924.19
2019-02-15T05:32:05.648Z,924.17
2019-02-15T05:33:37.462Z,924.15
2019-02-15T05:35:09.276Z,924.14
2019-02-15T05:36:41.086Z,924.11
2019-02-15T05:38:12.901Z,924.02
2019-02-15T05:39:44.715Z,923.97
2019-02-15T05:41:16.524Z,923.91
2019-02-15T05:44:20.249Z,923.82
2019-02-15T05:45:51.961Z,923.75
2019-02-15T05:47:23.776Z,923.72
2019-02-15T05:48:55.585Z,923.69
2019-02-15T05:50:27.650Z,923.57
2019-02-15T05:51:59.214Z,923.50
2019-02-15T05:53:31.021Z,923.41
2019-02-15T05:55:02.834Z,923.35
2019-02-15T05:56:34.648Z,923.33
2019-02-15T05:58:06.464Z,923.27
2019-02-15T05:59:38.271Z,923.23
2019-02-15T06:01:10.094Z,923.15
2019-02-15T06:02:41.995Z,923.19
2019-02-15T06:04:13.709Z,923.17
2019-02-15T06:05:45.523Z,923.14
2019-02-15T06:07:17.340Z,923.18
2019-02-15T06:08:49.145Z,923.09
2019-02-15T06:10:20.958Z,923.20
2019-02-15T06:11:52.769Z,923.08
2019-02-15T06:13:24.585Z,923.03
2019-02-15T06:14:56.395Z,923.04
2019-02-15T06:16:28.205Z,923.03
2019-02-15T06:18:00.018Z,922.97
2019-02-15T06:19:31.830Z,922.97
2019-02-15T06:21:03.893Z,922.91
2019-02-15T06:22:35.457Z,922.91
2019-02-15T06:24:07.275Z,922.85
2019-02-15T06:25:39.081Z,922.78
2019-02-15T06:27:10.894Z,922.80
2019-02-15T06:28:42.705Z,922.71
2019-02-15T06:30:14.518Z,922.75
2019-02-15T06:31:46.327Z,922.72
2019-02-15T06:33:18.140Z,922.69
2019-02-15T06:34:49.968Z,922.72
2019-02-15T06:36:21.764Z,922.73
2019-02-15T06:37:53.576Z,922.70
2019-02-15T06:39:25.665Z,922.71
2019-02-15T06:40:57.200Z,922.68
2019-02-15T06:42:29.025Z,922.59
2019-02-15T06:44:00.825Z,922.54
2019-02-15T06:45:32.648Z,922.57
2019-02-15T06:47:04.449Z,922.62
2019-02-15T06:48:36.264Z,922.43
2019-02-15T06:50:08.073Z,922.53
2019-02-15T06:51:40.145Z,922.47
2019-02-15T06:53:11.697Z,922.51
2019-02-15T06:54:43.509Z,922.47
2019-02-15T06:56:15.321Z,922.51
2019-02-15T06:57:47.233Z,922.57
2019-02-15T06:59:18.946Z,922.59
2019-02-15T07:00:50.757Z,922.61
2019-02-15T07:02:22.570Z,922.64
2019-02-15T07:03:54.384Z,922.65
2019-02-15T07:05:26.198Z,922.68
2019-02-15T07:06:58.010Z,922.76
2019-02-15T07:08:29.818Z,922.76
2019-02-15T07:10:01.638Z,922.70
2019-02-15T07:11:33.442Z,922.78
2019-02-15T07:13:05.254Z,922.78
2019-02-15T07:14:37.067Z,922.77
2019-02-15T07:16:08.983Z,922.76
2019-02-15T07:17:40.690Z,922.72
2019-02-15T07:19:12.502Z,922.70
2019-02-15T07:20:44.314Z,922.69
2019-02-15T07:22:16.126Z,922.71
2019-02-15T07:23:47.938Z,922.69
2019-02-15T07:25:19.750Z,922.68
2019-02-15T07:26:51.562Z,922.71
2019-02-15T07:28:23.374Z,922.68
2019-02-15T07:29:55.189Z,922.67
2019-02-15T07:31:26.998Z,922.73
2019-02-15T07:32:58.809Z,922.63
2019-02-15T07:34:30.725Z,922.67
2019-02-15T07:36:02.435Z,922.61
2019-02-15T07:37:34.246Z,922.62
2019-02-15T07:39:06.059Z,922.61
2019-02-15T07:40:37.870Z,922.63
2019-02-15T07:42:09.682Z,922.63
2019-02-15T07:43:41.494Z,922.68
2019-02-15T07:45:13.307Z,922.62
2019-02-15T07:46:45.119Z,922.64
2019-02-15T07:48:16.932Z,922.67
2019-02-15T07:49:48.743Z,922.64
2019-02-15T07:51:20.555Z,922.62
2019-02-15T07:52:52.767Z,922.54
2019-02-15T07:54:24.178Z,922.52
2019-02-15T07:55:55.990Z,922.44
2019-02-15T07:57:27.805Z,922.42
2019-02-15T07:58:59.614Z,922.32
2019-02-15T08:00:31.427Z,922.27
2019-02-15T08:02:03.273Z,922.30
2019-02-15T08:03:35.050Z,922.33
2019-02-15T08:05:06.864Z,922.29
2019-02-15T08:06:38.674Z,922.30
2019-02-15T08:08:10.485Z,922.33
2019-02-15T08:09:42.299Z,922.34
2019-02-15T08:11:14.220Z,922.40
2019-02-15T08:12:45.939Z,922.42
2019-02-15T08:14:17.826Z,922.39
2019-02-15T08:15:52.062Z,922.44
2019-02-15T08:17:21.372Z,922.47
2019-02-15T08:18:53.168Z,922.45
2019-02-15T08:20:24.980Z,922.49
2019-02-15T08:21:56.791Z,922.47
2019-02-15T08:23:28.605Z,922.42
2019-02-15T08:25:02.774Z,922.40
2019-02-15T08:26:32.227Z,922.38
2019-02-15T08:28:04.040Z,922.45
2019-02-15T08:29:36.455Z,922.45
2019-02-15T08:31:07.663Z,922.50
2019-02-15T08:32:39.474Z,922.50
2019-02-15T08:34:11.287Z,922.50
2019-02-15T08:35:43.101Z,922.52
2019-02-15T08:37:14.910Z,922.52
2019-02-15T08:38:46.722Z,922.50
2019-02-15T08:40:18.534Z,922.53
2019-02-15T08:42:01.185Z,922.52
2019-02-15T08:43:22.158Z,922.53
2019-02-15T08:44:54.002Z,922.47
2019-02-15T08:46:25.790Z,922.36
2019-02-15T08:47:57.742Z,922.44
2019-02-15T08:49:29.408Z,922.43
2019-02-15T08:51:01.266Z,922.45
2019-02-15T08:52:33.028Z,922.47
2019-02-15T08:54:04.850Z,922.44
2019-02-15T08:55:36.879Z,922.47
2019-02-15T08:57:08.462Z,922.52
2019-02-15T08:58:40.273Z,922.63
2019-02-15T09:00:12.085Z,922.65
2019-02-15T09:01:43.974Z,922.70
2019-02-15T09:03:15.711Z,922.78
2019-02-15T09:04:47.571Z,922.82
2019-02-15T09:06:19.434Z,922.84
2019-02-15T09:07:51.172Z,922.83
2019-02-15T09:09:23.015Z,922.76
2019-02-15T09:10:54.768Z,922.83
2019-02-15T09:12:26.611Z,922.86
2019-02-15T09:13:58.396Z,922.89
2019-02-15T09:15:30.240Z,922.89
2019-02-15T09:17:02.220Z,922.94
2019-02-15T09:18:35.435Z,922.90
2019-02-15T09:20:05.783Z,922.94
2019-02-15T09:21:38.671Z,922.99
2019-02-15T09:23:09.410Z,923.03
2019-02-15T09:24:41.178Z,923.02
2019-02-15T09:26:18.175Z,923.00
2019-02-15T09:29:16.845Z,923.05
2019-02-15T09:30:48.665Z,923.11
2019-02-15T09:32:20.322Z,923.11
2019-02-15T09:33:52.258Z,923.15
2019-02-15T09:35:23.767Z,923.15
2019-02-15T09:36:55.768Z,923.16
2019-02-15T09:41:31.162Z,923.23
2019-02-15T09:43:02.976Z,923.23
2019-02-15T09:44:34.736Z,923.24
2019-02-15T09:46:06.459Z,923.24
2019-02-15T09:47:38.275Z,923.22
2019-02-15T09:49:10.203Z,923.28
2019-02-15T09:50:42.147Z,923.34
2019-02-15T09:55:17.623Z,923.24
2019-02-15T09:56:49.360Z,923.31
2019-02-15T09:58:21.061Z,923.29
2019-02-15T09:59:52.784Z,923.36
2019-02-15T10:01:25.997Z,923.35
2019-02-15T10:02:56.616Z,923.38
2019-02-15T10:04:28.454Z,923.42
2019-02-15T10:06:00.823Z,923.42
2019-02-15T10:07:33.122Z,923.37
2019-02-15T10:09:04.017Z,923.42
2019-02-15T10:10:36.826Z,923.39
2019-02-15T10:12:07.380Z,923.44
2019-02-15T10:13:40.382Z,923.48
2019-02-15T10:15:11.109Z,923.51
2019-02-15T10:16:42.918Z,923.56
2019-02-15T10:18:14.898Z,923.58
2019-02-15T10:22:50.466Z,923.70
2019-02-15T10:25:54.674Z,923.73
2019-02-15T10:28:57.350Z,923.82
2019-02-15T10:30:29.145Z,923.84
2019-02-15T10:32:00.934Z,923.86
2019-02-15T10:33:33.926Z,923.86
2019-02-15T10:38:08.843Z,923.89
2019-02-15T10:39:40.602Z,923.78
2019-02-15T10:41:12.150Z,923.90
2019-02-15T10:42:44.023Z,923.78
2019-02-15T10:44:16.512Z,923.84
2019-02-15T10:45:47.719Z,923.92
2019-02-15T10:47:24.971Z,923.93
2019-02-15T10:50:22.980Z,923.99
2019-02-15T10:51:55.037Z,923.95
2019-02-15T10:53:27.018Z,923.92
2019-02-15T10:54:58.269Z,923.98
2019-02-15T10:56:31.210Z,923.96
2019-02-15T10:58:01.899Z,923.83
2019-02-15T10:59:34.199Z,923.91
2019-02-15T11:01:05.786Z,923.89
2019-02-15T11:02:37.411Z,923.94
2019-02-15T11:04:09.357Z,923.97
2019-02-15T11:05:40.941Z,923.93
2019-02-15T11:07:12.885Z,924.09
2019-02-15T11:08:44.779Z,924.15
2019-02-15T11:10:16.383Z,924.08
2019-02-15T11:13:20.453Z,924.23
2019-02-15T11:16:23.996Z,924.11
2019-02-15T11:19:28.755Z,924.04
2019-02-15T11:20:59.689Z,924.01
2019-02-15T11:22:32.323Z,924.06
2019-02-15T11:24:04.582Z,924.15
2019-02-15T11:25:35.356Z,924.24
2019-02-15T11:27:06.467Z,924.35
2019-02-15T11:30:10.752Z,924.47
2019-02-15T11:31:41.915Z,924.46
2019-02-15T11:33:15.219Z,924.38
2019-02-15T11:34:45.507Z,924.35
2019-02-15T11:36:17.703Z,924.26
2019-02-15T11:37:49.094Z,924.22
2019-02-15T11:39:20.959Z,924.29
2019-02-15T11:40:52.725Z,924.30
2019-02-15T11:42:24.827Z,924.31
2019-02-15T11:43:56.848Z,924.33
2019-02-15T11:45:28.179Z,924.30
2019-02-15T11:48:31.812Z,924.27
2019-02-15T11:50:03.629Z,924.27
2019-02-15T11:51:35.443Z,924.27
2019-02-15T11:53:07.387Z,924.30
2019-02-15T11:54:39.348Z,924.30
2019-02-15T11:56:10.935Z,924.32
2019-02-15T11:57:42.761Z,924.33
2019-02-15T11:59:14.524Z,924.30
2019-02-15T12:00:46.814Z,924.35
2019-02-15T12:02:18.165Z,924.38
2019-02-15T12:03:50.218Z,924.32
2019-02-15T12:05:21.789Z,924.35
2019-02-15T12:06:53.936Z,924.36
2019-02-15T12:08:25.507Z,924.36
2019-02-15T12:09:57.286Z,924.36
2019-02-15T12:11:30.259Z,924.30
2019-02-15T12:13:01.227Z,924.36
2019-02-15T12:14:32.732Z,924.38
2019-02-15T12:17:36.707Z,924.41
2019-02-15T12:20:40.148Z,924.50
2019-02-15T12:22:11.820Z,924.49
2019-02-15T12:23:43.629Z,924.47
2019-02-15T12:25:15.514Z,924.43
2019-02-15T12:26:47.517Z,924.44
2019-02-15T12:28:19.217Z,924.43
2019-02-15T12:29:50.991Z,924.46
2019-02-15T12:31:22.792Z,924.51
2019-02-15T12:32:54.669Z,924.53
2019-02-15T12:34:26.289Z,924.49
2019-02-15T12:35:58.430Z,924.49
2019-02-15T12:37:29.920Z,924.46
2019-02-15T12:39:01.926Z,924.48
2019-02-15T12:40:33.617Z,924.53
2019-02-15T12:43:37.251Z,924.44
2019-02-15T12:45:09.006Z,924.44
2019-02-15T12:46:40.818Z,924.39
2019-02-15T12:51:16.531Z,924.35
2019-02-15T12:52:48.284Z,924.32
2019-02-15T12:54:20.133Z,924.35
2019-02-15T12:55:51.716Z,924.27
2019-02-15T12:57:23.528Z,924.23
2019-02-15T12:58:55.402Z,924.21
2019-02-15T13:01:59.065Z,924.17
2019-02-15T13:05:02.986Z,924.15
2019-02-15T13:06:34.485Z,924.17
2019-02-15T13:08:06.773Z,924.15
2019-02-15T13:09:38.264Z,924.20
2019-02-15T13:11:10.503Z,924.15
2019-02-15T13:12:43.333Z,924.09
2019-02-15T13:14:14.097Z,924.09
2019-02-15T13:15:46.146Z,924.10
2019-02-15T13:17:24.480Z,924.06
2019-02-15T13:18:49.404Z,924.09
2019-02-15T13:20:20.789Z,923.98
2019-02-15T13:21:53.260Z,923.95
2019-02-15T13:23:25.569Z,923.88
2019-02-15T13:24:57.404Z,923.92
2019-02-15T13:26:29.684Z,923.86
2019-02-15T13:28:00.698Z,923.87
2019-02-15T13:29:33.059Z,923.84
2019-02-15T13:31:05.569Z,923.83
2019-02-15T13:32:35.865Z,923.76
2019-02-15T13:34:08.283Z,923.77
2019-02-15T13:35:39.840Z,923.83
2019-02-15T13:37:11.539Z,923.74
2019-02-15T13:38:43.525Z,923.65
2019-02-15T13:40:15.295Z,923.66
2019-02-15T13:43:19.586Z,923.62
2019-02-15T13:44:51.988Z,923.52
2019-02-15T13:46:23.841Z,923.56
2019-02-15T13:47:56.673Z,923.51
2019-02-15T13:49:27.316Z,923.41
2019-02-15T13:50:59.230Z,923.36
2019-02-15T13:52:30.492Z,923.35
2019-02-15T13:54:02.273Z,923.38
2019-02-15T13:55:33.719Z,923.39
2019-02-15T13:57:05.112Z,923.36
2019-02-15T13:58:37.618Z,923.31
2019-02-15T14:00:08.486Z,923.32
2019-02-15T14:01:41.897Z,923.27
2019-02-15T14:03:11.932Z,923.26
2019-02-15T14:04:43.863Z,923.33
2019-02-15T14:06:16.551Z,923.35
2019-02-15T14:07:48.074Z,923.36
2019-02-15T14:09:19.611Z,923.26
2019-02-15T14:10:51.268Z,923.21
2019-02-15T14:12:23.342Z,923.20
2019-02-15T14:13:55.167Z,923.20
2019-02-15T14:15:27.106Z,923.16
2019-02-15T14:16:58.532Z,923.15
2019-02-15T14:18:32.018Z,923.16
2019-02-15T14:20:03.113Z,923.09
2019-02-15T14:21:33.795Z,923.07
2019-02-15T14:23:05.186Z,923.03
2019-02-15T14:27:41.007Z,922.92
2019-02-15T14:29:12.565Z,922.88
2019-02-15T14:30:44.701Z,922.89
2019-02-15T14:32:16.846Z,922.86
2019-02-15T14:33:48.256Z,922.82
2019-02-15T14:35:19.915Z,922.79
2019-02-15T14:38:25.434Z,922.67
2019-02-15T14:39:55.638Z,922.73
2019-02-15T14:41:27.277Z,922.70
2019-02-15T14:43:00.474Z,922.73
2019-02-15T14:44:30.999Z,922.69
2019-02-15T14:46:03.315Z,922.65
2019-02-15T14:47:34.518Z,922.67
2019-02-15T14:49:06.837Z,922.61
2019-02-15T14:50:38.476Z,922.63
2019-02-15T14:52:10.441Z,922.60
2019-02-15T14:53:42.720Z,922.55
2019-02-15T14:55:13.871Z,922.58
2019-02-15T14:56:45.528Z,922.59
2019-02-15T14:59:50.158Z,922.58
2019-02-15T15:01:20.563Z,922.66
2019-02-15T15:02:52.938Z,922.64
2019-02-15T15:04:24.637Z,922.67
2019-02-15T15:05:56.619Z,922.36
2019-02-15T15:07:28.301Z,922.53
2019-02-15T15:08:59.658Z,922.53
2019-02-15T15:10:31.801Z,922.54
2019-02-15T15:12:03.286Z,922.51
2019-02-15T15:13:35.438Z,922.40
2019-02-15T15:15:06.922Z,922.40
2019-02-15T15:16:39.117Z,922.27
2019-02-15T15:19:42.377Z,922.10
2019-02-15T15:21:14.909Z,922.04
2019-02-15T15:24:18.146Z,922.15
2019-02-15T15:25:50.690Z,922.06
2019-02-15T15:27:22.578Z,921.98
2019-02-15T15:28:54.160Z,921.95
2019-02-15T15:30:25.704Z,922.02
2019-02-15T15:33:29.065Z,922.01
2019-02-15T15:36:33.288Z,922.00
2019-02-15T15:38:04.925Z,922.07
2019-02-15T15:39:36.356Z,921.74
2019-02-15T15:42:40.203Z,921.66
2019-02-15T15:44:11.835Z,921.62
2019-02-15T15:45:43.675Z,921.63
2019-02-15T15:47:15.468Z,921.53
2019-02-15T15:50:18.931Z,921.48
2019-02-15T15:51:50.872Z,921.37
2019-02-15T15:53:22.689Z,921.37
2019-02-15T15:54:57.673Z,921.37
2019-02-15T15:56:26.592Z,921.46
2019-02-15T15:57:58.122Z,921.46
2019-02-15T15:59:30.338Z,921.50
2019-02-15T16:01:01.818Z,921.51
2019-02-15T16:02:33.646Z,921.52
2019-02-15T16:05:37.483Z,921.55
2019-02-15T16:07:08.710Z,921.48
2019-02-15T16:10:12.620Z,921.33
2019-02-15T16:11:44.708Z,921.30
2019-02-15T16:13:15.974Z,921.20
2019-02-15T16:14:48.075Z,921.11
2019-02-15T16:16:19.654Z,921.03
2019-02-15T16:19:23.619Z,921.11
2019-02-15T16:20:55.040Z,921.08
2019-02-15T16:22:27.149Z,921.08
2019-02-15T16:23:58.698Z,920.98
2019-02-15T16:27:02.410Z,920.99
2019-02-15T16:28:34.382Z,921.00
2019-02-15T16:36:13.159Z,920.92
2019-02-15T16:37:45.182Z,920.80
2019-02-15T16:39:16.787Z,920.80
2019-02-15T16:40:49.540Z,920.78
2019-02-15T16:42:20.517Z,920.78
2019-02-15T16:43:52.231Z,920.71
2019-02-15T16:45:24.041Z,920.78
2019-02-15T16:46:55.857Z,920.84
2019-02-15T16:48:27.675Z,920.78
2019-02-15T16:49:59.544Z,920.86
2019-02-15T16:51:31.603Z,920.84
2019-02-15T16:53:03.109Z,920.78
2019-02-15T16:54:34.926Z,920.76
2019-02-15T16:57:38.550Z,920.85
2019-02-15T16:59:10.399Z,920.82
2019-02-15T17:00:42.949Z,920.89
2019-02-15T17:02:14.582Z,920.80
2019-02-15T17:03:45.922Z,920.75
2019-02-15T17:05:18.062Z,920.79
2019-02-15T17:08:21.659Z,920.75
2019-02-15T17:09:53.287Z,920.82
2019-02-15T17:11:25.432Z,920.70
2019-02-15T17:12:56.747Z,920.63
2019-02-15T17:14:28.566Z,920.69
2019-02-15T17:16:00.340Z,920.62
2019-02-15T17:17:32.155Z,920.56
2019-02-15T17:19:04.375Z,920.46
2019-02-15T17:20:36.199Z,920.49
2019-02-15T17:22:07.848Z,920.45
2019-02-15T17:23:39.967Z,920.45
2019-02-15T17:25:11.236Z,920.56
2019-02-15T17:28:15.153Z,920.84
2019-02-15T17:29:46.860Z,920.84
2019-02-15T17:31:18.715Z,921.07
2019-02-15T17:32:50.488Z,920.79
2019-02-15T17:34:22.203Z,920.89
2019-02-15T17:35:55.069Z,920.68
2019-02-15T17:37:26.041Z,920.67
2019-02-15T17:40:29.768Z,920.61
2019-02-15T17:42:01.178Z,920.59
2019-02-15T17:43:33.157Z,920.60
2019-02-15T17:45:04.841Z,920.60
2019-02-15T17:48:08.749Z,920.46
2019-02-15T17:49:40.759Z,920.52
2019-02-15T17:51:12.372Z,920.54
2019-02-15T17:52:43.890Z,920.51
2019-02-15T17:54:15.849Z,920.52
2019-02-15T17:55:47.568Z,920.57
2019-02-15T17:57:19.329Z,920.52
2019-02-15T17:58:51.654Z,920.59
2019-02-15T18:00:23.058Z,920.68
2019-02-15T18:03:26.791Z,920.73
2019-02-15T18:04:58.404Z,920.53
2019-02-15T18:06:30.221Z,920.62
2019-02-15T18:09:34.106Z,920.44
2019-02-15T18:11:05.873Z,920.38
2019-02-15T18:12:37.688Z,920.37
2019-02-15T18:14:09.308Z,920.38
2019-02-15T18:15:41.426Z,920.31
2019-02-15T18:17:12.991Z,920.30
2019-02-15T18:18:45.054Z,920.50
2019-02-15T18:20:16.568Z,920.44
2019-02-15T18:21:48.417Z,920.44
2019-02-15T18:24:52.684Z,920.39
2019-02-15T18:26:23.887Z,920.33
2019-02-15T18:27:55.654Z,920.30
2019-02-15T18:29:27.473Z,920.34
2019-02-15T18:30:59.695Z,920.29
2019-02-15T18:32:31.109Z,920.25
2019-02-15T18:34:03.131Z,920.17
2019-02-15T18:35:34.948Z,920.11
2019-02-15T18:37:07.200Z,919.90
2019-02-15T18:38:40.673Z,919.83
2019-02-15T18:40:10.226Z,919.91
2019-02-15T18:43:13.971Z,919.90
2019-02-15T18:46:17.472Z,919.80
2019-02-15T18:47:49.645Z,919.85
2019-02-15T18:49:21.109Z,919.73
2019-02-15T18:50:52.925Z,919.66
2019-02-15T18:52:24.806Z,919.61
2019-02-15T18:53:56.621Z,919.63
2019-02-15T18:55:28.863Z,919.71
2019-02-15T18:57:00.198Z,919.75
2019-02-15T18:58:32.545Z,920.01
2019-02-15T19:00:04.027Z,919.83
2019-02-15T19:01:35.769Z,919.78
2019-02-15T19:03:07.603Z,919.60
2019-02-15T19:04:39.394Z,919.42
2019-02-15T19:06:11.345Z,919.58
2019-02-15T19:07:42.911Z,919.65
2019-02-15T19:09:14.891Z,919.68
2019-02-15T19:10:46.550Z,919.68
2019-02-15T19:12:18.397Z,919.58
2019-02-15T19:13:50.378Z,919.43
2019-02-15T19:15:22.045Z,919.42
2019-02-15T19:16:54.179Z,919.44
2019-02-15T19:18:25.767Z,919.42
2019-02-15T19:19:57.771Z,919.46
2019-02-15T19:21:30.035Z,919.40
2019-02-15T19:23:01.353Z,919.34
2019-02-15T19:24:33.036Z,919.35
2019-02-15T19:26:05.011Z,919.27
2019-02-15T19:27:36.762Z,919.12
2019-02-15T19:29:08.480Z,919.09
2019-02-15T19:30:40.236Z,919.03
2019-02-15T19:32:12.196Z,919.07
2019-02-15T19:33:44.033Z,919.13
2019-02-15T19:35:15.704Z,919.13
2019-02-15T19:36:47.581Z,919.21
2019-02-15T19:38:19.331Z,919.28
2019-02-15T19:39:51.134Z,919.27
2019-02-15T19:41:22.967Z,919.30
2019-02-15T19:42:54.782Z,919.27
2019-02-15T19:44:26.884Z,919.20
2019-02-15T19:45:58.369Z,919.09
2019-02-15T19:47:30.954Z,919.08
2019-02-15T19:49:02.311Z,919.06
2019-02-15T19:50:34.210Z,919.03
2019-02-15T19:52:05.688Z,918.99
2019-02-15T19:53:37.676Z,919.01
2019-02-15T19:56:41.098Z,918.92
2019-02-15T19:58:13.200Z,918.84
2019-02-15T19:59:53.495Z,918.86
2019-02-15T20:01:16.853Z,918.82
2019-02-15T20:02:48.372Z,918.81
2019-02-15T20:04:20.518Z,918.79
2019-02-15T20:05:52.305Z,918.80
2019-02-15T20:07:24.080Z,918.76
2019-02-15T20:08:56.125Z,918.74
2019-02-15T20:10:27.486Z,918.71
2019-02-15T20:11:59.316Z,918.76
2019-02-15T20:13:31.099Z,918.67
2019-02-15T20:15:02.935Z,918.73
2019-02-15T20:16:34.793Z,918.74
2019-02-15T20:18:06.837Z,918.70
2019-02-15T20:19:48.014Z,918.71
2019-02-15T20:21:10.174Z,918.64
2019-02-15T20:22:42.005Z,918.60
2019-02-15T20:24:13.836Z,918.56
2019-02-15T20:25:45.915Z,918.53
2019-02-15T20:27:17.551Z,918.52
2019-02-15T20:28:49.248Z,918.52